createdAt,value
2023-01-17T00:02:35.276Z,88.93
2023-01-17T00:05:59.031Z,89.27
2023-01-17T00:09:19.849Z,88.94
2023-01-17T00:12:24.505Z,89.18
2023-01-17T00:15:28.415Z,88.75
2023-01-17T00:18:30.848Z,88.91
2023-01-17T00:21:52.075Z,88.80
2023-01-17T00:25:12.906Z,88.31
2023-01-17T00:28:15.544Z,88.34
2023-01-17T00:31:18.712Z,88.29
2023-01-17T00:34:21.272Z,88.25
2023-01-17T00:37:23.647Z,88.15
2023-01-17T00:40:26.179Z,88.13
2023-01-17T00:43:48.613Z,87.85
2023-01-17T00:47:09.540Z,87.84
2023-01-17T00:50:30.207Z,87.31
2023-01-17T00:53:50.967Z,87.71
2023-01-17T00:57:12.797Z,87.51
2023-01-17T01:00:35.842Z,87.45
2023-01-17T01:03:57.471Z,87.48
2023-01-17T01:07:18.524Z,87.28
2023-01-17T01:10:39.645Z,87.57
2023-01-17T01:14:00.822Z,87.56
2023-01-17T01:17:21.738Z,87.48
2023-01-17T01:20:45.312Z,87.34
2023-01-17T01:24:06.560Z,87.52
2023-01-17T01:27:27.368Z,87.34
2023-01-17T01:30:48.451Z,87.49
2023-01-17T01:33:52.246Z,87.68
2023-01-17T01:36:54.858Z,87.80
2023-01-17T01:39:57.381Z,87.45
2023-01-17T01:43:05.715Z,87.88
2023-01-17T01:46:11.431Z,88.40
2023-01-17T01:49:26.164Z,88.85
2023-01-17T01:52:31.651Z,89.00
2023-01-17T01:55:38.783Z,89.12
2023-01-17T01:58:45.832Z,89.92
2023-01-17T02:01:51.726Z,90.61
2023-01-17T02:04:55.100Z,90.39
2023-01-17T02:08:03.588Z,90.48
2023-01-17T02:11:07.242Z,90.32
2023-01-17T02:14:19.117Z,89.65
2023-01-17T02:17:36.478Z,90.04
2023-01-17T02:20:50.884Z,89.92
2023-01-17T02:24:11.771Z,89.97
2023-01-17T02:27:46.629Z,90.04
2023-01-17T02:30:54.616Z,89.96
2023-01-17T02:34:10.853Z,89.55
2023-01-17T02:37:22.918Z,89.71
2023-01-17T02:40:35.261Z,89.82
2023-01-17T02:43:39.539Z,89.63
2023-01-17T02:46:49.076Z,89.44
2023-01-17T02:50:01.600Z,89.90
2023-01-17T02:53:06.798Z,89.95
2023-01-17T02:56:11.921Z,89.63
2023-01-17T02:59:20.993Z,89.95
2023-01-17T03:02:43.832Z,89.85
2023-01-17T03:05:51.932Z,89.80
2023-01-17T03:08:54.854Z,89.71
2023-01-17T03:11:58.995Z,89.94
2023-01-17T03:15:01.552Z,89.95
2023-01-17T03:18:08.348Z,89.71
2023-01-17T03:21:11.207Z,89.84
2023-01-17T03:24:13.691Z,89.65
2023-01-17T03:27:16.389Z,89.48
2023-01-17T03:30:20.452Z,89.31
2023-01-17T03:33:23.520Z,89.39
2023-01-17T03:36:26.008Z,89.57
2023-01-17T03:39:29.006Z,89.13
2023-01-17T03:42:31.428Z,89.13
2023-01-17T03:45:33.904Z,88.73
2023-01-17T03:48:36.312Z,88.82
2023-01-17T03:51:38.962Z,88.79
2023-01-17T03:54:41.417Z,88.90
2023-01-17T03:57:45.231Z,89.10
2023-01-17T04:00:47.814Z,89.01
2023-01-17T04:03:50.447Z,88.84
2023-01-17T04:06:52.984Z,88.76
2023-01-17T04:09:55.455Z,88.26
2023-01-17T04:12:57.983Z,88.74
2023-01-17T04:16:00.440Z,88.76
2023-01-17T04:19:02.970Z,88.81
2023-01-17T04:22:05.491Z,88.75
2023-01-17T04:25:08.417Z,88.69
2023-01-17T04:28:11.222Z,88.19
2023-01-17T04:31:16.710Z,88.55
2023-01-17T04:34:19.209Z,89.16
2023-01-17T04:37:22.684Z,89.50
2023-01-17T04:40:25.863Z,89.02
2023-01-17T04:43:28.336Z,88.84
2023-01-17T04:46:31.004Z,88.96
2023-01-17T04:49:33.556Z,88.97
2023-01-17T04:52:36.296Z,89.03
2023-01-17T04:55:38.814Z,89.41
2023-01-17T04:58:41.746Z,89.36
2023-01-17T05:01:44.625Z,89.22
2023-01-17T05:04:47.120Z,89.55
2023-01-17T05:07:59.026Z,88.91
2023-01-17T05:11:02.581Z,89.28
2023-01-17T05:14:05.279Z,89.45
2023-01-17T05:17:07.935Z,89.24
2023-01-17T05:20:11.761Z,89.75
2023-01-17T05:23:14.268Z,90.10
2023-01-17T05:26:17.058Z,89.58
2023-01-17T05:29:20.239Z,89.27
2023-01-17T05:32:22.765Z,89.07
2023-01-17T05:35:28.693Z,88.91
2023-01-17T05:38:31.191Z,89.18
2023-01-17T05:41:33.993Z,89.22
2023-01-17T05:44:36.512Z,89.17
2023-01-17T05:47:39.008Z,88.90
2023-01-17T05:50:41.504Z,88.81
2023-01-17T05:53:43.898Z,88.66
2023-01-17T05:56:46.797Z,88.86
2023-01-17T05:59:49.156Z,88.90
2023-01-17T06:02:56.150Z,88.88
2023-01-17T06:05:58.867Z,88.96
2023-01-17T06:09:01.836Z,89.63
2023-01-17T06:12:04.847Z,89.57
2023-01-17T06:15:08.065Z,88.79
2023-01-17T06:18:13.660Z,89.43
2023-01-17T06:21:16.259Z,89.37
2023-01-17T06:24:18.719Z,89.39
2023-01-17T06:27:21.608Z,89.82
2023-01-17T06:30:24.229Z,89.91
2023-01-17T06:33:27.098Z,90.05
2023-01-17T06:36:30.290Z,90.62
2023-01-17T06:39:33.131Z,90.26
2023-01-17T06:42:35.604Z,90.19
2023-01-17T06:45:38.236Z,90.71
2023-01-17T06:48:43.887Z,90.77
2023-01-17T06:51:46.644Z,90.78
2023-01-17T06:54:49.253Z,90.85
2023-01-17T06:57:51.974Z,91.03
2023-01-17T07:00:54.667Z,91.15
2023-01-17T07:03:57.623Z,91.08
2023-01-17T07:07:01.342Z,90.92
2023-01-17T07:10:05.096Z,91.16
2023-01-17T07:13:07.679Z,90.63
2023-01-17T07:16:10.139Z,90.22
2023-01-17T07:19:13.105Z,88.96
2023-01-17T07:22:15.952Z,87.36
2023-01-17T07:25:20.172Z,87.61
2023-01-17T07:28:24.108Z,87.64
2023-01-17T07:31:26.686Z,87.88
2023-01-17T07:34:29.370Z,87.83
2023-01-17T07:37:32.006Z,88.01
2023-01-17T07:40:41.827Z,86.73
2023-01-17T07:43:44.558Z,86.55
2023-01-17T07:46:47.166Z,87.13
2023-01-17T07:49:49.717Z,86.61
2023-01-17T07:52:52.459Z,86.13
2023-01-17T07:55:55.298Z,86.08
2023-01-17T07:58:57.777Z,86.63
2023-01-17T08:02:00.403Z,83.73
2023-01-17T08:05:03.045Z,84.91
2023-01-17T08:08:08.843Z,84.53
2023-01-17T08:11:11.383Z,83.65
2023-01-17T08:14:13.930Z,83.72
2023-01-17T08:17:17.138Z,83.33
2023-01-17T08:20:20.400Z,83.97
2023-01-17T08:23:23.314Z,84.27
2023-01-17T08:26:25.818Z,84.35
2023-01-17T08:29:29.776Z,82.07
2023-01-17T08:32:32.359Z,81.49
2023-01-17T08:35:36.229Z,81.21
2023-01-17T08:38:39.094Z,81.82
2023-01-17T08:41:41.745Z,82.62
2023-01-17T08:44:44.250Z,82.65
2023-01-17T08:47:46.737Z,82.54
2023-01-17T08:50:49.856Z,81.12
2023-01-17T08:53:53.669Z,82.96
2023-01-17T08:56:56.151Z,83.09
2023-01-17T08:59:59.393Z,82.82
2023-01-17T09:03:01.960Z,82.94
2023-01-17T09:06:13.307Z,82.20
2023-01-17T09:09:17.278Z,83.00
2023-01-17T09:12:22.312Z,82.50
2023-01-17T09:15:25.106Z,81.59
2023-01-17T09:18:28.652Z,82.14
2023-01-17T09:21:31.284Z,81.19
2023-01-17T09:24:33.823Z,79.78
2023-01-17T09:27:36.262Z,80.13
2023-01-17T09:30:38.878Z,80.38
2023-01-17T09:33:42.778Z,79.14
2023-01-17T09:36:45.353Z,76.14
2023-01-17T09:39:49.806Z,72.87
2023-01-17T09:43:01.550Z,70.88
2023-01-17T09:46:06.142Z,69.05
2023-01-17T09:49:15.148Z,67.61
2023-01-17T09:52:21.245Z,66.11
2023-01-17T09:55:23.804Z,63.54
2023-01-17T09:58:34.845Z,60.80
2023-01-17T10:02:00.118Z,58.24
2023-01-17T10:05:02.689Z,56.12
2023-01-17T10:08:34.520Z,56.26
2023-01-17T10:12:09.911Z,52.35
2023-01-17T10:15:24.625Z,51.23
2023-01-17T10:19:00.753Z,51.74
2023-01-17T10:22:31.189Z,51.03
2023-01-17T10:25:56.403Z,53.15
2023-01-17T10:29:02.915Z,53.26
2023-01-17T10:32:05.885Z,52.03
2023-01-17T10:35:20.053Z,46.67
2023-01-17T10:38:32.809Z,46.74
2023-01-17T10:41:45.624Z,47.78
2023-01-17T10:44:57.764Z,45.03
2023-01-17T10:48:39.538Z,44.01
2023-01-17T10:51:43.110Z,43.68
2023-01-17T10:54:51.626Z,43.54
2023-01-17T10:57:54.568Z,40.11
2023-01-17T11:01:22.156Z,38.01
2023-01-17T11:04:42.218Z,39.23
2023-01-17T11:08:03.863Z,38.10
2023-01-17T11:11:06.335Z,38.09
2023-01-17T11:14:22.341Z,38.54
2023-01-17T11:17:27.647Z,37.05
2023-01-17T11:20:36.475Z,40.04
2023-01-17T11:23:42.221Z,37.35
2023-01-17T11:26:49.442Z,38.31
2023-01-17T11:30:21.936Z,40.46
2023-01-17T11:33:34.031Z,38.75
2023-01-17T11:36:36.738Z,36.05
2023-01-17T11:39:39.272Z,37.45
2023-01-17T11:42:41.867Z,35.46
2023-01-17T11:45:45.518Z,32.40
2023-01-17T11:48:52.459Z,30.48
2023-01-17T11:51:57.932Z,28.90
2023-01-17T11:55:00.763Z,26.91
2023-01-17T11:58:03.432Z,28.24
2023-01-17T12:01:23.995Z,29.20
2023-01-17T12:04:42.742Z,26.37
2023-01-17T12:08:12.392Z,27.93
2023-01-17T12:11:35.950Z,26.76
2023-01-17T12:14:50.609Z,26.00
2023-01-17T12:18:11.523Z,28.55
2023-01-17T12:21:22.734Z,30.70
2023-01-17T12:24:49.999Z,36.21
2023-01-17T12:28:04.407Z,40.53
2023-01-17T12:31:40.138Z,42.26
2023-01-17T12:34:53.563Z,40.92
2023-01-17T12:38:08.969Z,38.98
2023-01-17T12:41:24.409Z,38.91
2023-01-17T12:44:33.756Z,39.01
2023-01-17T12:47:42.881Z,39.56
2023-01-17T12:50:59.193Z,40.85
2023-01-17T12:54:25.574Z,41.68
2023-01-17T12:57:40.822Z,44.22
2023-01-17T13:00:48.755Z,46.40
2023-01-17T13:04:16.372Z,48.06
2023-01-17T13:07:42.087Z,48.45
2023-01-17T13:10:51.963Z,50.56
2023-01-17T13:13:57.948Z,51.91
2023-01-17T13:17:19.177Z,53.21
2023-01-17T13:20:37.729Z,53.70
2023-01-17T13:24:07.654Z,53.48
2023-01-17T13:27:09.987Z,53.93
2023-01-17T13:30:24.392Z,54.78
2023-01-17T13:33:40.984Z,55.26
2023-01-17T13:37:13.211Z,55.44
2023-01-17T13:40:29.702Z,56.14
2023-01-17T13:43:39.434Z,57.47
2023-01-17T13:46:53.742Z,56.71
2023-01-17T13:49:59.360Z,57.50
2023-01-17T13:53:27.323Z,58.19
2023-01-17T13:56:32.426Z,58.57
2023-01-17T13:59:35.957Z,59.07
2023-01-17T14:02:39.063Z,58.70
2023-01-17T14:05:41.426Z,59.56
2023-01-17T14:08:45.544Z,59.50
2023-01-17T14:12:06.382Z,59.85
2023-01-17T14:15:23.805Z,61.01
2023-01-17T14:18:46.472Z,61.05
2023-01-17T14:21:49.177Z,61.90
2023-01-17T14:25:20.417Z,63.21
2023-01-17T14:28:30.842Z,62.98
2023-01-17T14:31:33.501Z,63.43
2023-01-17T14:34:36.742Z,63.77
2023-01-17T14:37:48.140Z,64.97
2023-01-17T14:40:57.575Z,64.76
2023-01-17T14:44:01.085Z,64.97
2023-01-17T14:47:03.761Z,65.92
2023-01-17T14:50:18.395Z,66.00
2023-01-17T14:53:22.182Z,65.47
2023-01-17T14:56:27.458Z,66.79
2023-01-17T14:59:29.870Z,67.02
2023-01-17T15:02:32.636Z,66.90
2023-01-17T15:05:35.188Z,66.96
2023-01-17T15:08:37.738Z,67.22
2023-01-17T15:11:41.218Z,66.98
2023-01-17T15:14:46.334Z,67.80
2023-01-17T15:17:48.802Z,67.67
2023-01-17T15:20:55.898Z,67.05
2023-01-17T15:24:02.368Z,67.38
2023-01-17T15:27:06.352Z,67.83
2023-01-17T15:30:15.091Z,68.64
2023-01-17T15:33:21.107Z,67.44
2023-01-17T15:36:30.179Z,68.20
2023-01-17T15:39:39.158Z,67.92
2023-01-17T15:42:43.725Z,67.97
2023-01-17T15:45:58.262Z,68.47
2023-01-17T15:49:29.086Z,67.87
2023-01-17T15:52:31.818Z,68.71
2023-01-17T15:55:37.734Z,69.35
2023-01-17T15:58:40.232Z,68.58
2023-01-17T16:01:44.378Z,67.96
2023-01-17T16:04:47.096Z,67.82
2023-01-17T16:07:57.969Z,68.83
2023-01-17T16:11:03.262Z,68.92
2023-01-17T16:14:07.914Z,69.02
2023-01-17T16:17:17.776Z,68.76
2023-01-17T16:20:29.545Z,68.23
2023-01-17T16:23:32.079Z,68.68
2023-01-17T16:26:34.939Z,68.96
2023-01-17T16:29:37.703Z,67.83
2023-01-17T16:32:40.232Z,68.31
2023-01-17T16:35:44.146Z,69.39
2023-01-17T16:38:49.632Z,69.23
2023-01-17T16:41:59.783Z,69.85
2023-01-17T16:45:02.283Z,69.94
2023-01-17T16:51:24.946Z,69.40
2023-01-17T16:54:27.972Z,69.81
2023-01-17T16:57:30.420Z,69.65
2023-01-17T17:00:33.426Z,70.74
2023-01-17T17:03:35.910Z,70.79
2023-01-17T17:06:39.350Z,70.50
2023-01-17T17:09:42.152Z,72.54
2023-01-17T17:12:44.978Z,72.62
2023-01-17T17:15:47.546Z,73.14
2023-01-17T17:19:01.302Z,73.40
2023-01-17T17:22:06.526Z,73.84
2023-01-17T17:25:09.975Z,74.71
2023-01-17T17:28:12.465Z,74.85
2023-01-17T17:31:14.998Z,76.54
2023-01-17T17:34:17.762Z,76.58
2023-01-17T17:37:21.873Z,77.14
2023-01-17T17:40:24.411Z,77.22
2023-01-17T17:43:26.904Z,77.38
2023-01-17T17:46:30.295Z,77.71
2023-01-17T17:49:32.903Z,78.96
2023-01-17T17:52:35.313Z,79.44
2023-01-17T17:55:40.086Z,79.88
2023-01-17T17:58:43.782Z,80.50
2023-01-17T18:01:48.465Z,81.17
2023-01-17T18:04:51.523Z,81.75
2023-01-17T18:07:54.737Z,81.44
2023-01-17T18:11:00.575Z,80.97
2023-01-17T18:14:05.710Z,81.73
2023-01-17T18:17:08.291Z,81.59
2023-01-17T18:20:11.174Z,82.12
2023-01-17T18:23:13.697Z,82.62
2023-01-17T18:26:39.282Z,82.47
2023-01-17T18:29:41.904Z,82.68
2023-01-17T18:32:45.938Z,83.58
2023-01-17T18:35:59.984Z,83.62
2023-01-17T18:39:10.671Z,83.33
2023-01-17T18:42:14.277Z,83.71
2023-01-17T18:45:17.039Z,83.89
2023-01-17T18:48:19.832Z,84.08
2023-01-17T18:51:23.120Z,84.19
2023-01-17T18:54:27.912Z,84.57
2023-01-17T18:57:30.925Z,85.16
2023-01-17T19:00:33.761Z,85.44
2023-01-17T19:03:37.911Z,84.91
2023-01-17T19:06:42.979Z,85.82
2023-01-17T19:09:45.741Z,86.06
2023-01-17T19:12:48.344Z,85.92
2023-01-17T19:15:51.465Z,85.17
2023-01-17T19:18:55.521Z,85.15
2023-01-17T19:21:58.170Z,85.13
2023-01-17T19:25:01.323Z,85.25
2023-01-17T19:28:04.557Z,84.86
2023-01-17T19:31:08.478Z,84.87
2023-01-17T19:34:14.207Z,85.32
2023-01-17T19:37:16.906Z,85.56
2023-01-17T19:40:20.425Z,85.98
2023-01-17T19:43:23.335Z,85.88
2023-01-17T19:46:27.383Z,85.32
2023-01-17T19:49:32.201Z,85.29
2023-01-17T19:52:38.993Z,85.58
2023-01-17T19:55:41.592Z,85.92
2023-01-17T19:58:45.529Z,86.20
2023-01-17T20:01:49.544Z,85.91
2023-01-17T20:04:52.328Z,85.42
2023-01-17T20:07:55.824Z,86.73
2023-01-17T20:11:05.100Z,87.40
2023-01-17T20:14:09.982Z,86.46
2023-01-17T20:17:12.891Z,86.74
2023-01-17T20:20:17.252Z,86.76
2023-01-17T20:23:19.897Z,86.55
2023-01-17T20:26:25.353Z,86.52
2023-01-17T20:29:27.974Z,86.35
2023-01-17T20:32:31.079Z,85.98
2023-01-17T20:35:34.162Z,85.72
2023-01-17T20:38:45.819Z,85.97
2023-01-17T20:41:51.479Z,86.63
2023-01-17T20:44:54.007Z,87.57
2023-01-17T20:47:56.675Z,86.33
2023-01-17T20:51:10.679Z,87.23
2023-01-17T20:54:16.299Z,87.74
2023-01-17T20:57:18.759Z,86.53
2023-01-17T21:00:21.819Z,86.91
2023-01-17T21:03:28.820Z,86.97
2023-01-17T21:06:31.499Z,87.40
2023-01-17T21:09:35.165Z,87.30
2023-01-17T21:12:37.866Z,86.89
2023-01-17T21:15:44.602Z,87.37
2023-01-17T21:18:48.489Z,86.80
2023-01-17T21:21:51.533Z,87.71
2023-01-17T21:24:54.426Z,87.17
2023-01-17T21:27:57.202Z,87.15
2023-01-17T21:31:00.334Z,87.83
2023-01-17T21:34:09.074Z,88.00
2023-01-17T21:37:11.478Z,87.58
2023-01-17T21:40:14.664Z,87.00
2023-01-17T21:43:17.013Z,87.35
2023-01-17T21:46:19.452Z,87.71
2023-01-17T21:49:22.074Z,87.51
2023-01-17T21:52:24.520Z,87.63
2023-01-17T21:55:45.739Z,87.61
2023-01-17T21:58:53.723Z,87.73
2023-01-17T22:01:56.232Z,87.64
2023-01-17T22:04:58.673Z,87.63
2023-01-17T22:08:14.737Z,87.31
2023-01-17T22:11:20.393Z,86.94
2023-01-17T22:14:22.852Z,87.30
2023-01-17T22:17:25.267Z,87.61
2023-01-17T22:20:27.826Z,87.92
2023-01-17T22:23:30.867Z,87.76
2023-01-17T22:26:33.474Z,87.97
2023-01-17T22:29:38.375Z,87.83
2023-01-17T22:32:41.239Z,87.35
2023-01-17T22:35:44.120Z,87.97
2023-01-17T22:38:47.109Z,87.98
2023-01-17T22:41:49.552Z,87.48
2023-01-17T22:44:51.937Z,87.94
2023-01-17T22:47:54.388Z,87.49
2023-01-17T22:51:00.466Z,86.69
2023-01-17T22:54:04.647Z,86.93
2023-01-17T22:57:07.057Z,86.89
2023-01-17T23:00:14.639Z,86.91
2023-01-17T23:03:17.382Z,86.73
2023-01-17T23:06:23.036Z,87.22
2023-01-17T23:09:25.642Z,86.55
2023-01-17T23:12:28.056Z,86.66
2023-01-17T23:15:48.905Z,87.06
2023-01-17T23:19:10.396Z,86.28
2023-01-17T23:22:21.012Z,86.35
2023-01-17T23:25:24.013Z,85.72
2023-01-17T23:28:26.435Z,85.91
2023-01-17T23:31:28.864Z,86.20
2023-01-17T23:34:31.377Z,85.38
2023-01-17T23:37:52.829Z,86.05
2023-01-17T23:41:25.488Z,85.91
2023-01-17T23:44:31.985Z,86.29
2023-01-17T23:47:34.421Z,86.02
2023-01-17T23:50:41.556Z,86.22
2023-01-17T23:53:43.971Z,86.32
2023-01-17T23:56:46.514Z,86.95
2023-01-17T23:59:48.952Z,85.76
